Time;durP1;ratioP1;P1;durP2;ratioP2;P2;SDS_P1;SDS_P2;PMS_P1;PMS_P2;Temp;Humidity;BMP_temperature;BMP_pressure;BME280_temperature;BME280_humidity;BME280_pressure;Samples;Min_cycle;Max_cycle;Signal;HPM_P1;HPM_P2
2021/07/25 00:01:03;;;;;;;14.27;7.65;;;;;;;18.14;69.23;100469.09;4939927;28;20104;-87
2021/07/25 00:03:29;;;;;;;11.60;8.90;;;;;;;18.37;69.25;100500.88;4939887;29;20052;-86
2021/07/25 00:05:56;;;;;;;11.93;7.60;;;;;;;18.42;69.14;100504.03;4927593;29;20494;-90
2021/07/25 00:08:22;;;;;;;12.18;8.30;;;;;;;18.44;69.06;100503.91;4904694;29;20049;-89
2021/07/25 00:10:49;;;;;;;13.70;8.23;;;;;;;18.03;69.02;100456.66;4909214;29;20040;-89
2021/07/25 00:13:17;;;;;;;11.85;7.93;;;;;;;18.24;69.29;100506.25;4929797;29;20055;-89
2021/07/25 00:15:44;;;;;;;9.90;8.05;;;;;;;18.18;69.68;100499.59;4924214;29;20077;-87
2021/07/25 00:18:10;;;;;;;12.05;9.05;;;;;;;18.15;69.77;100506.91;4923771;29;20413;-89
2021/07/25 00:20:36;;;;;;;11.18;8.35;;;;;;;17.82;69.90;100459.06;4930343;29;20454;-89
2021/07/25 00:23:02;;;;;;;12.68;8.40;;;;;;;18.00;69.66;100487.75;4936539;29;20045;-88
2021/07/25 00:25:29;;;;;;;13.05;8.52;;;;;;;17.66;69.57;100437.34;4905588;29;20063;-89
2021/07/25 00:27:56;;;;;;;12.40;8.65;;;;;;;17.62;69.49;100439.38;4920696;29;20048;-90
2021/07/25 00:30:25;;;;;;;11.18;7.97;;;;;;;18.10;69.38;100501.13;4941171;29;20048;-88
2021/07/25 00:32:51;;;;;;;12.23;8.85;;;;;;;17.90;69.37;100476.97;4939867;29;20067;-86
2021/07/25 00:35:18;;;;;;;12.65;8.90;;;;;;;18.03;69.54;100498.94;4931914;29;20056;-87
2021/07/25 00:37:47;;;;;;;11.73;8.55;;;;;;;17.95;69.89;100500.44;4940248;29;20052;-88
2021/07/25 00:40:25;;;;;;;10.52;8.75;;;;;;;18.03;69.78;100511.31;4931791;29;20048;-88
2021/07/25 00:42:53;;;;;;;11.60;8.52;;;;;;;17.96;69.67;100502.13;4927385;29;20421;-88
2021/07/25 00:45:19;;;;;;;12.48;8.85;;;;;;;17.36;70.26;100428.88;4921225;29;20055;-88
2021/07/25 00:47:46;;;;;;;13.68;8.30;;;;;;;18.04;69.91;100526.16;4921359;29;20048;-88
2021/07/25 00:50:13;;;;;;;12.57;8.90;;;;;;;17.96;69.92;100491.56;4929480;29;20044;-89
2021/07/25 00:52:39;;;;;;;13.10;9.75;;;;;;;18.00;70.31;100516.78;4929311;29;20052;-89
2021/07/25 00:55:06;;;;;;;13.85;9.32;;;;;;;17.36;70.81;100430.69;4927036;29;20044;-89
2021/07/25 00:57:33;;;;;;;13.63;9.45;;;;;;;17.97;70.70;100522.28;4917397;29;20055;-89
2021/07/25 01:00:00;;;;;;;12.85;10.25;;;;;;;17.85;70.82;100487.88;4903706;29;20048;-88
2021/07/25 01:02:35;;;;;;;13.70;9.90;;;;;;;17.50;71.36;100456.91;4903837;29;20049;-89
2021/07/25 01:05:12;;;;;;;14.80;10.30;;;;;;;17.72;71.25;100489.69;4905138;29;20422;-89
2021/07/25 01:07:43;;;;;;;14.75;10.23;;;;;;;17.54;71.47;100470.75;4921001;29;20063;-88
2021/07/25 01:10:30;;;;;;;13.45;10.40;;;;;;;17.68;71.62;100486.44;4922389;29;20059;-89
2021/07/25 01:13:08;;;;;;;13.25;10.00;;;;;;;17.81;71.66;100518.09;4920056;29;20052;-88
2021/07/25 01:15:40;;;;;;;14.90;10.20;;;;;;;17.46;71.62;100452.00;4920623;29;20051;-88
2021/07/25 01:18:10;;;;;;;13.45;10.93;;;;;;;17.77;71.81;100516.59;4923186;29;20052;-88
2021/07/25 01:20:37;;;;;;;13.63;9.45;;;;;;;17.79;71.87;100512.06;4905392;29;20048;-88
2021/07/25 01:23:11;;;;;;;12.75;10.27;;;;;;;17.83;71.84;100520.63;4927598;28;20052;-87
2021/07/25 01:25:42;;;;;;;15.85;10.63;;;;;;;17.84;71.70;100512.56;4938499;28;20048;-87
2021/07/25 01:28:18;;;;;;;13.18;10.23;;;;;;;17.80;71.72;100513.75;4912427;29;20059;-90
2021/07/25 01:30:56;;;;;;;13.20;9.77;;;;;;;17.80;72.08;100516.41;4908124;29;20052;-88
2021/07/25 01:33:28;;;;;;;13.32;10.52;;;;;;;17.64;72.06;100494.69;4909575;29;20053;-89
2021/07/25 01:35:57;;;;;;;13.82;10.55;;;;;;;17.72;72.40;100514.31;4917688;29;20104;-90
2021/07/25 01:38:25;;;;;;;15.23;10.35;;;;;;;17.43;72.04;100479.41;4951782;29;20107;-89
2021/07/25 01:41:04;;;;;;;13.30;10.25;;;;;;;17.71;72.23;100517.91;4948287;29;20048;-89
2021/07/25 01:43:33;;;;;;;14.98;10.68;;;;;;;17.60;72.36;100512.53;4919093;29;20053;-89
2021/07/25 01:45:59;;;;;;;12.20;9.30;;;;;;;17.50;72.38;100480.66;4921034;29;20169;-90
2021/07/25 01:48:26;;;;;;;12.05;10.48;;;;;;;17.56;72.35;100495.22;4912571;29;20052;-89
2021/07/25 01:50:53;;;;;;;14.20;9.80;;;;;;;17.68;72.16;100512.00;4922246;29;20051;-89
2021/07/25 01:53:19;;;;;;;13.95;9.32;;;;;;;17.72;72.08;100508.19;4924503;29;20052;-88
2021/07/25 01:55:45;;;;;;;11.10;8.90;;;;;;;17.63;71.84;100487.75;4923583;29;20127;-89
2021/07/25 01:58:11;;;;;;;16.60;9.38;;;;;;;17.70;71.69;100508.31;4922596;29;20395;-88
2021/07/25 02:00:39;;;;;;;12.68;9.40;;;;;;;17.64;71.81;100516.66;4922694;29;20048;-88
2021/07/25 02:03:06;;;;;;;12.93;9.20;;;;;;;17.47;71.44;100480.91;4920577;29;20091;-88
2021/07/25 02:05:36;;;;;;;13.43;9.73;;;;;;;17.68;71.46;100509.38;4918736;29;20052;-87
2021/07/25 02:08:04;;;;;;;12.18;8.90;;;;;;;17.35;71.72;100461.50;4920886;29;20083;-88
2021/07/25 02:10:32;;;;;;;11.88;9.27;;;;;;;17.31;71.77;100462.69;4919978;29;20052;-90
2021/07/25 02:12:58;;;;;;;11.60;9.82;;;;;;;17.51;72.21;100497.38;4918932;29;20072;-89
2021/07/25 02:15:25;;;;;;;12.82;9.02;;;;;;;17.55;72.06;100520.78;4919411;29;20417;-87
2021/07/25 02:17:51;;;;;;;16.67;10.20;;;;;;;17.58;71.93;100510.00;4920139;29;20512;-88
2021/07/25 02:20:16;;;;;;;14.70;9.68;;;;;;;17.20;71.87;100454.66;4920016;29;20048;-90
2021/07/25 02:22:42;;;;;;;13.13;9.98;;;;;;;17.39;71.85;100485.88;4919431;29;20052;-90
2021/07/25 02:25:08;;;;;;;13.63;10.60;;;;;;;17.26;71.92;100470.06;4918770;29;20079;-90
2021/07/25 02:27:35;;;;;;;12.40;10.20;;;;;;;17.34;72.52;100494.09;4916920;29;20051;-91
2021/07/25 02:30:02;;;;;;;12.20;9.77;;;;;;;17.46;72.47;100515.31;4919605;29;20465;-91
2021/07/25 02:32:28;;;;;;;12.35;9.77;;;;;;;17.35;72.54;100505.50;4919578;29;20076;-89
2021/07/25 02:34:55;;;;;;;14.55;11.15;;;;;;;17.04;72.75;100453.09;4919491;29;20052;-90
2021/07/25 02:37:21;;;;;;;13.32;10.73;;;;;;;17.38;72.80;100514.06;4919570;29;20122;-90
2021/07/25 02:39:47;;;;;;;14.57;10.82;;;;;;;17.37;72.77;100512.38;4919092;29;20044;-89
2021/07/25 02:42:13;;;;;;;12.77;10.70;;;;;;;17.34;73.18;100502.00;4919669;29;20044;-89
2021/07/25 02:44:39;;;;;;;12.45;10.55;;;;;;;17.19;73.05;100485.47;4919406;29;20059;-91
2021/07/25 02:47:05;;;;;;;13.13;10.82;;;;;;;17.32;73.34;100498.66;4907052;29;20108;-90
2021/07/25 02:49:31;;;;;;;12.88;11.05;;;;;;;17.26;73.35;100499.91;4907488;29;20047;-89
2021/07/25 02:52:01;;;;;;;16.55;11.70;;;;;;;17.02;73.22;100465.53;4919498;29;20417;-90
2021/07/25 02:54:34;;;;;;;14.52;11.63;;;;;;;17.24;73.20;100500.97;4919986;29;20107;-89
2021/07/25 02:57:08;;;;;;;14.95;11.32;;;;;;;16.79;73.32;100446.00;4919641;29;20106;-89
2021/07/25 02:59:34;;;;;;;15.43;11.77;;;;;;;17.09;73.84;100513.44;4918770;29;20044;-87
2021/07/25 03:02:00;;;;;;;15.43;11.38;;;;;;;17.06;73.93;100505.72;4918339;29;20099;-87
2021/07/25 03:04:27;;;;;;;17.25;12.38;;;;;;;16.87;74.15;100496.41;4918646;29;20059;-90
2021/07/25 03:06:53;;;;;;;15.85;10.65;;;;;;;16.75;73.94;100455.91;4919611;29;20099;-91
2021/07/25 03:09:20;;;;;;;13.00;11.38;;;;;;;17.09;73.76;100505.53;4920476;29;20048;-89
2021/07/25 03:11:46;;;;;;;15.38;11.13;;;;;;;16.99;73.63;100488.63;4919857;29;20048;-88
2021/07/25 03:14:12;;;;;;;14.65;10.90;;;;;;;17.05;73.69;100496.13;4924787;29;20553;-88
2021/07/25 03:16:38;;;;;;;15.00;12.15;;;;;;;16.72;73.68;100447.38;4919307;29;20123;-88
2021/07/25 03:19:05;;;;;;;15.32;11.40;;;;;;;16.54;73.87;100423.97;4927460;29;20107;-88
2021/07/25 03:21:31;;;;;;;13.98;11.00;;;;;;;17.01;73.74;100498.13;4939087;29;20058;-88
2021/07/25 03:23:57;;;;;;;12.75;10.25;;;;;;;16.83;73.70;100462.44;4928450;29;20048;-87
2021/07/25 03:26:23;;;;;;;14.38;11.32;;;;;;;16.99;73.91;100492.13;4915718;29;20052;-88
2021/07/25 03:28:49;;;;;;;15.18;11.30;;;;;;;16.97;73.90;100494.03;4902488;29;20052;-88
2021/07/25 03:31:15;;;;;;;13.63;12.00;;;;;;;16.79;74.30;100464.44;4914465;29;20453;-88
2021/07/25 03:33:41;;;;;;;14.55;10.68;;;;;;;17.04;73.88;100486.53;4918065;29;20058;-90
2021/07/25 03:36:07;;;;;;;14.63;11.30;;;;;;;16.55;73.90;100420.38;4917741;29;20128;-91
2021/07/25 03:38:33;;;;;;;15.50;11.30;;;;;;;16.73;74.16;100455.16;4917477;29;20406;-87
2021/07/25 03:41:02;;;;;;;13.25;11.02;;;;;;;16.38;74.09;100407.47;4917086;29;20059;-87
2021/07/25 03:43:30;;;;;;;13.52;10.93;;;;;;;16.85;74.72;100495.66;4917543;29;20056;-88
2021/07/25 03:45:57;;;;;;;15.40;11.63;;;;;;;16.70;74.41;100449.25;4918494;29;20135;-90
2021/07/25 03:48:25;;;;;;;15.07;10.93;;;;;;;16.49;74.28;100420.81;4921372;29;20055;-89
2021/07/25 03:50:53;;;;;;;14.30;11.48;;;;;;;17.01;74.28;100486.75;4902986;29;20425;-88
2021/07/25 03:53:19;;;;;;;16.05;10.43;;;;;;;16.93;73.98;100479.34;4912935;29;20052;-88
2021/07/25 03:55:46;;;;;;;14.98;11.20;;;;;;;16.79;74.06;100459.19;4924241;29;20052;-88
2021/07/25 03:58:13;;;;;;;14.95;11.02;;;;;;;17.01;74.13;100497.28;4922980;29;20068;-88
2021/07/25 04:00:39;;;;;;;17.65;11.15;;;;;;;16.98;74.10;100500.13;4923350;29;20417;-88
2021/07/25 04:03:05;;;;;;;15.05;11.45;;;;;;;16.85;74.59;100495.66;4922346;29;20051;-88
2021/07/25 04:05:31;;;;;;;15.70;11.25;;;;;;;16.84;74.78;100486.06;4922677;29;20075;-88
2021/07/25 04:07:57;;;;;;;17.10;11.63;;;;;;;16.67;74.71;100467.94;4922982;29;20055;-88
2021/07/25 04:10:23;;;;;;;12.70;11.25;;;;;;;15.90;74.75;100335.13;4937956;28;20036;-85
2021/07/25 04:12:49;;;;;;;14.20;10.38;;;;;;;16.80;74.63;100466.97;4943387;28;20097;-88
2021/07/25 04:15:16;;;;;;;15.50;11.68;;;;;;;16.84;74.46;100478.16;4927612;28;20052;-88
2021/07/25 04:17:42;;;;;;;14.15;12.35;;;;;;;16.84;74.62;100483.44;4921543;29;20055;-87
2021/07/25 04:20:08;;;;;;;15.35;11.43;;;;;;;16.46;74.74;100418.34;4920993;29;20075;-90
2021/07/25 04:22:37;;;;;;;16.23;11.63;;;;;;;16.91;74.65;100489.97;4920597;29;20449;-89
2021/07/25 04:25:04;;;;;;;15.40;11.55;;;;;;;16.91;74.32;100487.34;4921360;29;20107;-88
2021/07/25 04:27:31;;;;;;;16.45;11.77;;;;;;;16.84;74.83;100486.06;4928991;28;20060;-87
2021/07/25 04:29:58;;;;;;;14.48;10.85;;;;;;;16.86;74.60;100485.97;4944765;28;20032;-84
2021/07/25 04:32:24;;;;;;;14.55;11.55;;;;;;;16.84;74.75;100493.13;4944127;28;20032;-87
2021/07/25 04:34:51;;;;;;;22.42;11.50;;;;;;;16.87;74.37;100487.66;4929508;28;20040;-88
2021/07/25 04:37:47;;;;;;;15.70;11.13;;;;;;;16.59;74.69;100453.47;4920167;29;20040;-88
2021/07/25 04:40:08;;;;;;;15.32;11.73;;;;;;;16.68;75.33;100494.16;4919763;29;20048;-88
2021/07/25 04:42:36;;;;;;;16.50;11.90;;;;;;;16.48;75.51;100461.25;4920409;29;20107;-90
2021/07/25 04:45:07;;;;;;;16.13;11.98;;;;;;;16.71;75.13;100486.06;4920041;29;20069;-90
2021/07/25 04:47:48;;;;;;;18.38;12.55;;;;;;;16.77;74.91;100487.44;4920707;29;20099;-90
2021/07/25 04:50:23;;;;;;;15.88;11.20;;;;;;;16.40;75.57;100440.69;4921967;29;20052;-90
2021/07/25 04:52:52;;;;;;;15.50;11.93;;;;;;;16.32;75.50;100433.28;4908374;29;20048;-89
2021/07/25 04:55:22;;;;;;;19.13;12.20;;;;;;;16.70;75.15;100489.66;4902972;29;20052;-90
2021/07/25 04:58:02;;;;;;;18.25;12.85;;;;;;;16.29;75.43;100430.84;4902354;29;20049;-89
2021/07/25 05:00:38;;;;;;;16.65;12.32;;;;;;;16.58;75.55;100477.28;4910941;29;20516;-87
2021/07/25 05:03:06;;;;;;;21.17;13.40;;;;;;;16.68;75.73;100488.91;4922154;29;20059;-87
2021/07/25 05:05:35;;;;;;;17.90;12.73;;;;;;;16.67;75.58;100486.38;4921497;29;20056;-87
2021/07/25 05:08:02;;;;;;;17.58;13.38;;;;;;;16.69;75.39;100476.59;4912069;29;20516;-90
2021/07/25 05:10:30;;;;;;;16.30;11.73;;;;;;;16.81;75.07;100492.38;4920724;29;20056;-90
2021/07/25 05:13:07;;;;;;;19.10;14.23;;;;;;;16.69;75.58;100479.22;4921490;29;20056;-90
2021/07/25 05:15:42;;;;;;;18.90;13.43;;;;;;;16.46;75.72;100463.16;4920711;29;20044;-90
2021/07/25 05:18:20;;;;;;;16.45;13.52;;;;;;;16.58;75.77;100482.56;4919937;29;20052;-89
2021/07/25 05:21:22;;;;;;;19.70;14.02;;;;;;;16.49;76.10;100469.06;4921583;29;20095;-89
2021/07/25 05:23:54;;;;;;;21.00;15.20;;;;;;;16.67;76.69;100504.81;4922769;29;20437;-88
2021/07/25 05:26:25;;;;;;;18.70;14.63;;;;;;;16.64;77.41;100501.44;4938448;28;20052;-87
2021/07/25 05:28:56;;;;;;;18.98;15.07;;;;;;;16.64;77.77;100498.78;4939402;29;20048;-88
2021/07/25 05:31:33;;;;;;;16.90;12.68;;;;;;;16.67;77.83;100497.75;4921538;29;20056;-87
2021/07/25 05:34:02;;;;;;;18.25;13.43;;;;;;;16.58;77.86;100493.09;4924350;29;20036;-86
2021/07/25 05:36:33;;;;;;;20.00;13.88;;;;;;;16.71;77.63;100490.47;4921940;28;20048;-88
2021/07/25 05:39:01;;;;;;;19.17;14.07;;;;;;;16.70;77.46;100494.06;4943166;28;20086;-86
2021/07/25 05:41:28;;;;;;;18.67;13.88;;;;;;;16.59;77.31;100492.16;4942256;28;20079;-87
2021/07/25 05:43:57;;;;;;;20.33;13.90;;;;;;;16.31;77.76;100463.22;4936624;28;20064;-86
2021/07/25 05:46:25;;;;;;;19.85;13.63;;;;;;;16.61;77.78;100503.44;4942675;28;20136;-87
2021/07/25 05:48:55;;;;;;;19.52;13.85;;;;;;;16.72;77.45;100502.72;4942387;28;20040;-88
2021/07/25 05:51:26;;;;;;;16.70;13.48;;;;;;;16.73;77.37;100502.59;4936960;28;20060;-88
2021/07/25 05:53:52;;;;;;;21.60;13.13;;;;;;;16.52;76.86;100467.16;4929358;29;20504;-89
2021/07/25 05:56:19;;;;;;;16.52;12.90;;;;;;;16.85;76.81;100508.00;4925112;29;20052;-88
2021/07/25 05:58:47;;;;;;;19.33;13.02;;;;;;;16.86;76.57;100505.25;4921868;29;20047;-89
2021/07/25 06:01:19;;;;;;;16.58;11.90;;;;;;;16.96;76.59;100513.44;4921179;29;20417;-88
2021/07/25 06:03:45;;;;;;;22.10;14.23;;;;;;;16.93;76.19;100492.53;4922719;29;20056;-88
2021/07/25 06:06:11;;;;;;;20.35;13.90;;;;;;;17.11;75.90;100515.03;4921986;29;20060;-89
2021/07/25 06:08:38;;;;;;;18.35;13.35;;;;;;;16.77;76.27;100466.34;4921671;29;20498;-89
2021/07/25 06:11:06;;;;;;;17.23;14.05;;;;;;;17.11;76.03;100520.28;4922002;29;20066;-89
2021/07/25 06:13:32;;;;;;;17.45;13.07;;;;;;;16.78;76.63;100462.75;4921479;29;20047;-89
2021/07/25 06:15:59;;;;;;;18.60;14.25;;;;;;;17.12;75.97;100519.34;4921957;29;20076;-88
2021/07/25 06:18:25;;;;;;;22.23;14.95;;;;;;;17.06;76.54;100514.47;4920677;29;20056;-88
2021/07/25 06:20:55;;;;;;;19.38;13.88;;;;;;;17.03;76.66;100519.09;4921412;29;20103;-88
2021/07/25 06:23:21;;;;;;;19.65;13.65;;;;;;;16.98;76.36;100515.94;4919988;29;20462;-88
2021/07/25 06:25:49;;;;;;;21.50;14.10;;;;;;;16.87;77.00;100506.09;4915968;29;20139;-89
2021/07/25 06:28:16;;;;;;;17.25;13.10;;;;;;;16.96;76.97;100516.06;4922450;29;20059;-89
2021/07/25 06:30:42;;;;;;;18.45;14.32;;;;;;;16.78;76.48;100475.94;4920890;29;20540;-89
2021/07/25 06:33:10;;;;;;;21.85;14.43;;;;;;;16.77;76.41;100483.00;4918857;29;20052;-89
2021/07/25 06:35:41;;;;;;;17.50;13.77;;;;;;;17.03;76.63;100525.25;4917594;29;20044;-89
2021/07/25 06:38:20;;;;;;;21.25;14.70;;;;;;;16.90;76.55;100505.91;4918959;29;20067;-89
2021/07/25 06:40:51;;;;;;;17.52;14.13;;;;;;;16.89;76.82;100501.56;4919479;29;20066;-89
2021/07/25 06:43:18;;;;;;;22.10;15.32;;;;;;;16.95;76.98;100524.91;4920219;29;20450;-89
2021/07/25 06:45:45;;;;;;;21.45;14.48;;;;;;;16.99;76.62;100529.06;4888571;29;20425;-88
2021/07/25 06:48:25;;;;;;;21.30;14.15;;;;;;;17.02;76.36;100522.72;4921587;29;20052;-89
2021/07/25 06:50:57;;;;;;;21.20;14.07;;;;;;;16.88;76.52;100489.34;4922829;29;20052;-89
2021/07/25 06:53:32;;;;;;;18.48;14.63;;;;;;;17.20;75.87;100531.16;4925360;29;20091;-89
2021/07/25 06:56:19;;;;;;;19.38;13.90;;;;;;;17.22;75.65;100535.38;4916186;29;20060;-89
2021/07/25 06:58:54;;;;;;;18.70;13.50;;;;;;;17.13;75.57;100521.00;4920247;29;20063;-88
2021/07/25 07:01:22;;;;;;;20.55;14.60;;;;;;;17.21;75.30;100504.69;4920575;29;20048;-88
2021/07/25 07:03:52;;;;;;;16.05;11.80;;;;;;;17.49;74.59;100530.94;4919917;29;20115;-88
2021/07/25 07:06:18;;;;;;;19.67;13.60;;;;;;;17.34;74.30;100509.94;4919973;29;20048;-88
2021/07/25 07:08:44;;;;;;;20.15;13.07;;;;;;;17.63;73.86;100544.00;4919997;29;20082;-87
2021/07/25 07:11:10;;;;;;;23.30;13.65;;;;;;;17.52;74.15;100547.38;4922131;29;20131;-88
2021/07/25 07:13:36;;;;;;;20.27;13.48;;;;;;;17.31;74.05;100518.06;4921978;29;20079;-88
2021/07/25 07:16:04;;;;;;;21.15;13.90;;;;;;;17.52;74.14;100547.38;4929295;29;20130;-88
2021/07/25 07:18:30;;;;;;;18.98;14.13;;;;;;;17.28;73.82;100497.16;4922528;29;20485;-88
2021/07/25 07:20:57;;;;;;;21.40;15.40;;;;;;;17.21;74.27;100523.16;4919392;29;20095;-88
2021/07/25 07:23:25;;;;;;;19.02;13.55;;;;;;;17.44;74.41;100558.50;4927875;29;20131;-85
2021/07/25 07:25:54;;;;;;;17.95;12.95;;;;;;;17.33;73.85;100539.91;4938098;29;20141;-87
2021/07/25 07:28:24;;;;;;;24.35;14.73;;;;;;;17.36;74.40;100546.78;4940188;28;20032;-87
2021/07/25 07:30:51;;;;;;;21.05;14.68;;;;;;;17.22;74.27;100521.34;4940241;28;20091;-85
2021/07/25 07:33:19;;;;;;;18.45;13.80;;;;;;;17.41;74.36;100540.22;4940549;28;20072;-84
2021/07/25 07:35:45;;;;;;;22.27;14.75;;;;;;;17.54;74.13;100558.69;4939133;28;20052;-85
2021/07/25 07:38:13;;;;;;;22.83;15.65;;;;;;;17.55;73.65;100547.19;4935044;28;20037;-84
2021/07/25 07:40:42;;;;;;;22.60;15.10;;;;;;;17.58;73.35;100530.28;4941101;28;20071;-83
2021/07/25 07:43:10;;;;;;;19.42;14.55;;;;;;;17.76;72.94;100565.09;4938789;28;20048;-85
2021/07/25 07:45:39;;;;;;;21.48;13.40;;;;;;;17.74;72.69;100565.19;4939280;28;20060;-86
2021/07/25 07:48:07;;;;;;;17.65;13.75;;;;;;;17.74;72.71;100570.47;4939281;28;20036;-88
2021/07/25 07:50:33;;;;;;;19.55;13.90;;;;;;;17.66;73.08;100575.44;4919714;29;20052;-87
2021/07/25 07:53:01;;;;;;;20.13;14.27;;;;;;;17.46;73.24;100549.63;4918101;29;20054;-88
2021/07/25 07:55:28;;;;;;;18.60;13.82;;;;;;;17.64;73.44;100582.66;4919532;29;20131;-88
2021/07/25 07:57:55;;;;;;;17.98;13.48;;;;;;;17.51;72.69;100560.69;4921299;29;20052;-88
2021/07/25 08:00:21;;;;;;;17.65;14.35;;;;;;;17.52;73.11;100591.41;4925230;29;20099;-88
2021/07/25 08:02:48;;;;;;;22.13;14.00;;;;;;;17.51;73.17;100587.91;4918269;29;20048;-87
2021/07/25 08:05:17;;;;;;;18.17;13.40;;;;;;;17.32;73.14;100561.13;4930077;28;20083;-88
2021/07/25 08:07:43;;;;;;;17.42;13.20;;;;;;;17.51;73.20;100590.56;4910569;29;20119;-88
2021/07/25 08:10:13;;;;;;;15.77;12.57;;;;;;;17.58;72.93;100597.09;4918939;29;20493;-87
2021/07/25 08:12:39;;;;;;;16.65;13.23;;;;;;;17.59;72.75;100600.59;4918768;29;20099;-88
2021/07/25 08:15:07;;;;;;;19.42;13.50;;;;;;;17.54;72.91;100590.38;4915437;29;20508;-88
2021/07/25 08:17:34;;;;;;;16.58;12.70;;;;;;;17.55;73.24;100601.75;4915707;29;20055;-88
2021/07/25 08:20:00;;;;;;;18.30;13.35;;;;;;;17.20;73.54;100568.94;4918446;29;20107;-86
2021/07/25 08:22:27;;;;;;;21.00;13.80;;;;;;;17.21;73.71;100578.53;4918646;29;20068;-86
2021/07/25 08:24:53;;;;;;;19.60;14.48;;;;;;;17.20;73.87;100599.72;4918687;29;20044;-85
2021/07/25 08:27:18;;;;;;;20.55;14.85;;;;;;;17.13;73.95;100581.69;4919413;29;20124;-85
2021/07/25 08:29:44;;;;;;;17.77;14.02;;;;;;;17.29;73.86;100601.75;4918668;29;20516;-84
2021/07/25 08:32:11;;;;;;;18.13;13.55;;;;;;;17.46;73.54;100616.44;4920048;29;20048;-85
2021/07/25 08:34:39;;;;;;;18.63;15.35;;;;;;;17.28;73.57;100590.38;4922107;29;20056;-85
2021/07/25 08:37:05;;;;;;;20.17;13.82;;;;;;;17.31;73.48;100588.44;4919492;29;20063;-85
2021/07/25 08:39:34;;;;;;;19.92;13.55;;;;;;;17.51;74.06;100629.31;4922553;29;20052;-86
2021/07/25 08:42:06;;;;;;;19.95;15.93;;;;;;;17.51;74.73;100618.75;4922128;29;20055;-85
2021/07/25 08:44:52;;;;;;;18.25;14.10;;;;;;;17.56;74.17;100622.75;4921563;29;20044;-86
2021/07/25 08:47:28;;;;;;;19.50;14.55;;;;;;;17.58;74.60;100625.31;4921269;29;20051;-85
2021/07/25 08:50:10;;;;;;;18.63;14.25;;;;;;;17.49;74.87;100628.56;4921323;29;20048;-86
2021/07/25 08:52:41;;;;;;;19.55;15.02;;;;;;;17.16;76.46;100599.09;4915890;29;20057;-86
2021/07/25 08:55:14;;;;;;;19.50;15.35;;;;;;;17.25;75.54;100600.28;4915046;29;20383;-85
2021/07/25 08:57:43;;;;;;;19.20;14.20;;;;;;;17.01;74.97;100535.03;4922751;29;20055;-84
2021/07/25 09:00:12;;;;;;;20.30;14.27;;;;;;;17.52;74.62;100613.38;4921790;29;20063;-86
2021/07/25 09:02:41;;;;;;;17.63;14.65;;;;;;;17.21;74.18;100590.88;4922656;29;20103;-86
2021/07/25 09:05:10;;;;;;;19.85;14.60;;;;;;;17.52;74.18;100629.19;4921532;29;20064;-86
2021/07/25 09:07:40;;;;;;;18.10;14.23;;;;;;;17.58;73.85;100636.69;4920745;29;20048;-84
2021/07/25 09:10:09;;;;;;;17.58;13.20;;;;;;;17.69;73.57;100628.03;4921341;29;20394;-85
2021/07/25 09:12:38;;;;;;;20.60;14.65;;;;;;;17.61;73.45;100627.72;4920864;29;20055;-84
2021/07/25 09:15:12;;;;;;;18.73;14.60;;;;;;;17.70;73.42;100626.22;4921339;29;20490;-86
2021/07/25 09:17:40;;;;;;;18.17;14.40;;;;;;;17.89;73.03;100624.03;4923766;29;20048;-86
2021/07/25 09:20:28;;;;;;;19.05;14.38;;;;;;;18.16;72.34;100615.13;4925160;29;20561;-85
2021/07/25 09:23:21;;;;;;;18.88;14.40;;;;;;;18.34;71.58;100612.09;4938531;28;20055;-84
2021/07/25 09:25:49;;;;;;;19.42;14.60;;;;;;;18.50;70.75;100609.19;4930313;29;20052;-85
2021/07/25 09:28:24;;;;;;;18.60;15.32;;;;;;;18.21;70.58;100535.50;4925711;29;20141;-85
2021/07/25 09:30:52;;;;;;;17.08;14.60;;;;;;;19.04;69.02;100610.50;4921454;29;20049;-84
2021/07/25 09:33:28;;;;;;;18.35;14.60;;;;;;;19.30;67.75;100608.53;4923256;29;20044;-85
2021/07/25 09:36:11;;;;;;;18.40;14.38;;;;;;;19.19;67.51;100612.00;4926387;29;20072;-86
2021/07/25 09:38:42;;;;;;;17.92;14.88;;;;;;;19.06;67.73;100597.19;4925884;29;20072;-86
2021/07/25 09:41:20;;;;;;;16.58;14.27;;;;;;;18.98;68.29;100619.75;4925893;29;20048;-87
2021/07/25 09:44:05;;;;;;;17.13;13.70;;;;;;;19.08;67.54;100627.00;4925667;29;20044;-86
2021/07/25 09:46:43;;;;;;;17.02;14.60;;;;;;;18.86;67.88;100592.41;4926444;29;20048;-87
2021/07/25 09:49:09;;;;;;;17.67;14.90;;;;;;;18.71;68.64;100599.69;4928358;29;20052;-86
2021/07/25 09:51:35;;;;;;;17.70;14.55;;;;;;;18.22;68.95;100542.50;4933962;29;20054;-86
2021/07/25 09:54:03;;;;;;;17.48;15.07;;;;;;;18.75;68.93;100626.75;4930952;29;20048;-80
2021/07/25 09:56:29;;;;;;;18.98;15.68;;;;;;;18.71;68.38;100622.63;4935597;29;20052;-88
2021/07/25 09:58:57;;;;;;;21.88;16.50;;;;;;;18.64;68.97;100632.81;4937945;29;20092;-85
2021/07/25 10:01:44;;;;;;;20.50;15.90;;;;;;;18.55;69.32;100626.41;4932729;29;20087;-86
2021/07/25 10:04:23;;;;;;;19.95;16.23;;;;;;;18.54;69.58;100632.63;4922734;29;20056;-86
2021/07/25 10:06:51;;;;;;;18.73;15.07;;;;;;;18.40;69.93;100612.47;4908794;29;20056;-87
2021/07/25 10:09:27;;;;;;;17.27;14.93;;;;;;;18.60;69.56;100623.41;4906989;29;20049;-88
2021/07/25 10:12:04;;;;;;;18.83;15.75;;;;;;;18.54;69.30;100614.13;4913385;29;20110;-89
2021/07/25 10:14:35;;;;;;;20.17;15.95;;;;;;;18.81;68.58;100620.13;4917789;29;20041;-86
2021/07/25 10:17:05;;;;;;;19.55;16.08;;;;;;;19.04;67.98;100605.22;4923590;29;20048;-85
2021/07/25 10:19:34;;;;;;;19.65;16.05;;;;;;;19.38;66.79;100613.22;4922656;29;20048;-83
2021/07/25 10:22:00;;;;;;;17.15;14.18;;;;;;;19.58;66.43;100610.84;4922598;29;20037;-84
2021/07/25 10:24:30;;;;;;;17.02;14.02;;;;;;;19.38;66.75;100612.41;4917941;29;20401;-84
2021/07/25 10:27:01;;;;;;;17.17;15.27;;;;;;;19.27;67.00;100626.44;4923007;29;20097;-83
2021/07/25 10:29:29;;;;;;;17.20;15.32;;;;;;;19.20;67.37;100624.28;4937378;28;20043;-85
2021/07/25 10:31:55;;;;;;;18.05;14.32;;;;;;;18.94;68.05;100591.00;4907134;29;20049;-85
2021/07/25 10:34:22;;;;;;;18.80;16.58;;;;;;;19.17;68.63;100613.91;4908297;29;20048;-85
2021/07/25 10:36:52;;;;;;;19.10;14.85;;;;;;;19.33;68.30;100620.69;4920708;29;20055;-86
2021/07/25 10:39:21;;;;;;;19.52;15.73;;;;;;;19.12;68.07;100573.75;4923075;29;20044;-87
2021/07/25 10:41:50;;;;;;;19.83;15.98;;;;;;;19.45;67.80;100624.22;4910554;29;20521;-88
2021/07/25 10:44:17;;;;;;;17.45;15.40;;;;;;;19.40;67.32;100606.03;4901089;29;20398;-89
2021/07/25 10:46:43;;;;;;;18.23;15.77;;;;;;;19.43;68.20;100611.09;4900026;29;20057;-85
2021/07/25 10:49:13;;;;;;;17.25;14.68;;;;;;;19.60;67.41;100608.94;4917740;29;20063;-89
2021/07/25 10:51:57;;;;;;;16.77;14.60;;;;;;;19.87;65.41;100581.28;4920094;29;20067;-89
2021/07/25 10:54:23;;;;;;;19.30;16.05;;;;;;;20.17;65.22;100615.06;4920203;29;20063;-88
2021/07/25 10:57:07;;;;;;;17.67;15.73;;;;;;;20.46;64.16;100607.41;4918799;29;20098;-88
2021/07/25 10:59:44;;;;;;;17.92;16.05;;;;;;;20.73;63.39;100595.53;4922109;29;20099;-88
2021/07/25 11:02:25;;;;;;;18.13;15.55;;;;;;;21.17;61.40;100597.25;4922564;29;20055;-89
2021/07/25 11:04:57;;;;;;;17.98;16.02;;;;;;;21.36;60.85;100600.03;4920367;29;20060;-89
2021/07/25 11:07:26;;;;;;;16.70;14.70;;;;;;;21.56;60.84;100594.81;4923105;29;20056;-88
2021/07/25 11:10:11;;;;;;;19.42;14.95;;;;;;;21.70;60.15;100593.63;4921521;29;20044;-89
2021/07/25 11:12:56;;;;;;;16.15;14.32;;;;;;;22.08;58.25;100594.72;4921154;29;20048;-87
2021/07/25 11:15:33;;;;;;;16.88;15.13;;;;;;;21.94;58.71;100585.34;4920936;29;20062;-88
2021/07/25 11:18:07;;;;;;;15.77;14.05;;;;;;;21.94;59.21;100592.47;4921013;29;20509;-84
2021/07/25 11:20:35;;;;;;;15.38;13.77;;;;;;;22.04;58.66;100583.53;4921566;29;20044;-85